Terminal Aerodrome Forecast
Issued by NWS Twin Cities, MN

Home | Current Version | Previous Version | Text Only | Print | Product List | Glossary On
Versions: 1 2 3 4 5 6 7 8 9 10 11 12
000
FTUS43 KMPX 061120
TAFEAU
TAF
KEAU 061120Z 0612/0712 VRB03KT P6SM FEW250
     FM061300 24006KT P6SM FEW250
     FM061800 24013G20KT P6SM FEW250
     FM070200 24008KT P6SM VCSH FEW120 BKN250 PROB30 0702/0706 -TSRA
      BKN070CB OVC200
     FM070600 34009KT P6SM SCT080 BKN120=

USA.gov is the U.S. government's official web portal to all federal, state and local government web resources and services.